Terminal Aerodrome Forecast
Issued by NWS Sioux Falls, SD

Home | Current Version | Previous Version | Graphics & Text | Print | Product List | Glossary On
Versions: 1 2 3 4 5 6 7 8 9 10 11 12 13 14 15 16 17 18
535
FTUS43 KFSD 112241 AAB
TAFHON
TAF AMD
KHON 112241Z 1123/1218 11010KT 3SM -SN SCT010 OVC025
     FM120000 09006KT P6SM OVC012
     FM120300 35005KT P6SM OVC015
     FM120900 35012KT P6SM BKN035
     FM121500 35012G18KT P6SM SKC=

USA.gov is the U.S. government's official web portal to all federal, state and local government web resources and services.